createdAt,value
2018-09-04T00:01:45.525Z,28.20
2018-09-04T00:04:13.778Z,28.83
2018-09-04T00:06:42.060Z,30.13
2018-09-04T00:09:10.355Z,33.83
2018-09-04T00:11:38.599Z,26.67
2018-09-04T00:14:07.235Z,27.70
2018-09-04T00:16:35.482Z,27.20
2018-09-04T00:19:03.737Z,22.27
2018-09-04T00:21:32.030Z,23.67
2018-09-04T00:24:00.489Z,21.33
2018-09-04T00:26:28.759Z,21.30
2018-09-04T00:28:57.010Z,21.83
2018-09-04T00:31:25.328Z,23.50
2018-09-04T00:33:53.578Z,22.87
2018-09-04T00:36:21.819Z,22.93
2018-09-04T00:38:50.111Z,22.67
2018-09-04T00:41:18.369Z,22.37
2018-09-04T00:43:46.616Z,21.43
2018-09-04T00:46:14.854Z,24.37
2018-09-04T00:48:43.103Z,22.43
2018-09-04T00:51:11.344Z,22.33
2018-09-04T00:53:39.608Z,23.63
2018-09-04T00:56:07.851Z,27.00
2018-09-04T00:58:36.111Z,26.17
2018-09-04T01:01:04.356Z,25.47
2018-09-04T01:03:32.644Z,27.97
2018-09-04T01:06:01.058Z,28.43
2018-09-04T01:08:29.550Z,29.90
2018-09-04T01:10:57.806Z,28.40
2018-09-04T01:13:26.051Z,29.03
2018-09-04T01:15:54.292Z,27.87
2018-09-04T01:18:22.527Z,27.83
2018-09-04T01:20:50.763Z,25.53
2018-09-04T01:23:19.068Z,28.13
2018-09-04T01:25:47.312Z,29.90
2018-09-04T01:28:15.568Z,24.50
2018-09-04T01:30:43.818Z,26.20
2018-09-04T01:33:12.060Z,26.90
2018-09-04T01:35:40.311Z,28.53
2018-09-04T01:38:08.555Z,25.17
2018-09-04T01:40:36.798Z,25.17
2018-09-04T01:43:05.173Z,26.03
2018-09-04T01:45:33.416Z,24.07
2018-09-04T01:48:01.660Z,30.10
2018-09-04T01:50:29.920Z,30.33
2018-09-04T01:52:58.211Z,40.40
2018-09-04T01:55:26.482Z,47.93
2018-09-04T01:57:54.734Z,46.30
2018-09-04T02:00:22.995Z,47.53
2018-09-04T02:02:51.242Z,50.00
2018-09-04T02:05:19.588Z,46.43
2018-09-04T02:07:47.829Z,46.23
2018-09-04T02:10:16.068Z,40.87
2018-09-04T02:12:44.505Z,38.87
2018-09-04T02:15:12.746Z,38.97
2018-09-04T02:17:41.014Z,47.40
2018-09-04T02:20:09.259Z,47.80
2018-09-04T02:22:37.734Z,48.67
2018-09-04T02:25:06.716Z,48.53
2018-09-04T02:27:35.120Z,47.87
2018-09-04T02:30:03.369Z,51.83
2018-09-04T02:32:31.615Z,51.60
2018-09-04T02:34:59.913Z,49.70
2018-09-04T02:37:28.123Z,59.13
2018-09-04T02:39:56.362Z,54.27
2018-09-04T02:42:24.617Z,57.23
2018-09-04T02:44:52.854Z,60.03
2018-09-04T02:47:21.111Z,57.60
2018-09-04T02:49:49.450Z,68.57
2018-09-04T02:52:17.711Z,62.87
2018-09-04T02:54:45.970Z,68.27
2018-09-04T02:57:14.216Z,70.17
2018-09-04T02:59:42.460Z,70.43
2018-09-04T03:02:10.705Z,64.23
2018-09-04T03:04:38.966Z,70.73
2018-09-04T03:07:07.257Z,74.63
2018-09-04T03:09:35.619Z,68.80
2018-09-04T03:12:03.904Z,73.80
2018-09-04T03:14:32.194Z,76.33
2018-09-04T03:17:00.488Z,73.20
2018-09-04T03:19:28.779Z,78.73
2018-09-04T03:21:57.066Z,84.87
2018-09-04T03:24:25.367Z,83.07
2018-09-04T03:26:53.647Z,84.47
2018-09-04T03:29:21.945Z,85.73
2018-09-04T03:31:50.308Z,74.00
2018-09-04T03:34:18.698Z,78.70
2018-09-04T03:36:46.986Z,81.37
2018-09-04T03:39:15.414Z,76.93
2018-09-04T03:41:44.030Z,80.47
2018-09-04T03:44:12.437Z,76.50
2018-09-04T03:46:40.700Z,74.30
2018-09-04T03:49:09.030Z,79.13
2018-09-04T03:51:37.332Z,78.80
2018-09-04T03:54:05.852Z,73.90
2018-09-04T03:56:34.135Z,71.33
2018-09-04T03:59:02.400Z,77.57
2018-09-04T04:01:30.773Z,79.60
2018-09-04T04:03:59.043Z,79.03
2018-09-04T04:06:27.302Z,73.63
2018-09-04T04:08:55.591Z,74.47
2018-09-04T04:11:23.868Z,72.63
2018-09-04T04:13:52.132Z,78.37
2018-09-04T04:16:20.599Z,75.40
2018-09-04T04:18:48.922Z,69.53
2018-09-04T04:21:17.199Z,68.33
2018-09-04T04:23:45.532Z,71.50
2018-09-04T04:26:13.773Z,76.63
2018-09-04T04:28:42.196Z,77.03
2018-09-04T04:31:10.474Z,80.00
2018-09-04T04:33:38.715Z,71.60
2018-09-04T04:36:07.026Z,68.47
2018-09-04T04:38:35.308Z,75.83
2018-09-04T04:41:03.579Z,74.10
2018-09-04T04:43:31.878Z,78.20
2018-09-04T04:46:00.255Z,72.37
2018-09-04T04:48:28.657Z,71.20
2018-09-04T04:50:56.942Z,67.47
2018-09-04T04:53:25.218Z,74.60
2018-09-04T04:55:53.497Z,66.80
2018-09-04T04:58:21.778Z,67.27
2018-09-04T05:00:50.092Z,71.07
2018-09-04T05:03:18.380Z,70.13
2018-09-04T05:05:46.665Z,70.63
2018-09-04T05:08:14.926Z,79.37
2018-09-04T05:10:43.266Z,66.50
2018-09-04T05:13:11.546Z,67.10
2018-09-04T05:15:39.817Z,66.63
2018-09-04T05:18:08.079Z,61.70
2018-09-04T05:20:36.376Z,62.43
2018-09-04T05:23:04.646Z,65.83
2018-09-04T05:25:32.912Z,63.50
2018-09-04T05:28:01.193Z,58.23
2018-09-04T05:30:29.483Z,63.27
2018-09-04T05:33:03.239Z,57.73
2018-09-04T05:35:39.160Z,59.20
2018-09-04T05:38:07.451Z,52.00
2018-09-04T05:40:35.726Z,45.97
2018-09-04T05:43:05.988Z,51.10
2018-09-04T05:45:34.788Z,51.73
2018-09-04T05:48:05.128Z,46.10
2018-09-04T05:50:33.419Z,41.10
2018-09-04T05:53:01.698Z,46.60
2018-09-04T05:55:29.968Z,44.10
2018-09-04T05:57:58.307Z,43.83
2018-09-04T06:00:28.931Z,36.80
2018-09-04T06:02:57.232Z,30.90
2018-09-04T06:05:25.522Z,34.87
2018-09-04T06:07:54.220Z,32.57
2018-09-04T06:10:22.549Z,34.57
2018-09-04T06:12:50.904Z,30.07
2018-09-04T06:15:19.345Z,27.53
2018-09-04T06:17:47.632Z,29.93
2018-09-04T06:20:16.762Z,28.97
2018-09-04T06:22:45.512Z,26.97
2018-09-04T06:25:13.829Z,27.43
2018-09-04T06:27:42.126Z,32.77
2018-09-04T06:30:10.534Z,33.23
2018-09-04T06:32:38.860Z,32.20
2018-09-04T06:35:07.347Z,30.93
2018-09-04T06:37:37.605Z,29.93
2018-09-04T06:40:06.150Z,35.10
2018-09-04T06:42:34.647Z,32.20
2018-09-04T06:45:03.045Z,33.63
2018-09-04T06:47:31.339Z,31.90
2018-09-04T06:49:59.654Z,33.03
2018-09-04T06:52:27.936Z,33.00
2018-09-04T06:54:56.224Z,30.53
2018-09-04T06:57:24.596Z,28.53
2018-09-04T06:59:52.975Z,30.83
2018-09-04T07:02:21.351Z,30.20
2018-09-04T07:04:49.643Z,30.77
2018-09-04T07:07:18.722Z,30.87
2018-09-04T07:09:47.071Z,31.57
2018-09-04T07:12:15.736Z,30.30
2018-09-04T07:14:44.187Z,28.57
2018-09-04T07:17:12.592Z,28.90
2018-09-04T07:19:41.474Z,30.27
2018-09-04T07:22:09.773Z,28.57
2018-09-04T07:24:38.208Z,31.27
2018-09-04T07:27:07.974Z,29.73
2018-09-04T07:29:36.644Z,32.47
2018-09-04T07:32:04.985Z,30.53
2018-09-04T07:34:33.327Z,29.30
2018-09-04T07:37:01.974Z,28.13
2018-09-04T07:39:30.392Z,27.20
2018-09-04T07:41:58.867Z,30.20
2018-09-04T07:44:27.115Z,27.67
2018-09-04T07:46:55.411Z,27.67
2018-09-04T07:49:23.750Z,25.87
2018-09-04T07:51:52.168Z,27.63
2018-09-04T07:54:20.859Z,27.07
2018-09-04T07:56:49.875Z,27.80
2018-09-04T07:59:18.930Z,28.50
2018-09-04T08:01:47.225Z,26.80
2018-09-04T08:04:15.524Z,27.10
2018-09-04T08:06:44.088Z,27.47
2018-09-04T08:09:12.395Z,26.63
2018-09-04T08:11:40.699Z,27.83
2018-09-04T08:14:09.077Z,29.40
2018-09-04T08:16:37.561Z,28.20
2018-09-04T08:19:05.979Z,28.03
2018-09-04T08:21:35.979Z,28.33
2018-09-04T08:24:05.924Z,28.33
2018-09-04T08:26:34.290Z,30.27
2018-09-04T08:29:02.577Z,29.33
2018-09-04T08:31:30.874Z,31.07
2018-09-04T08:33:59.205Z,31.70
2018-09-04T08:36:27.482Z,31.67
2018-09-04T08:38:55.760Z,29.83
2018-09-04T08:41:24.050Z,30.20
2018-09-04T08:43:52.426Z,30.77
2018-09-04T08:46:20.703Z,31.77
2018-09-04T08:48:48.994Z,30.20
2018-09-04T08:51:17.296Z,33.03
2018-09-04T08:53:45.545Z,30.83
2018-09-04T08:56:14.012Z,31.10
2018-09-04T08:58:42.304Z,34.40
2018-09-04T09:01:10.923Z,35.37
2018-09-04T09:03:39.269Z,36.17
2018-09-04T09:06:07.621Z,37.63
2018-09-04T09:08:35.917Z,34.80
2018-09-04T09:11:04.178Z,36.63
2018-09-04T09:13:32.423Z,35.23
2018-09-04T09:16:00.723Z,36.00
2018-09-04T09:18:28.966Z,35.23
2018-09-04T09:20:57.207Z,33.87
2018-09-04T09:23:26.065Z,36.40
2018-09-04T09:25:54.410Z,35.63
2018-09-04T09:28:22.706Z,36.40
2018-09-04T09:30:50.960Z,36.53
2018-09-04T09:33:19.207Z,36.50
2018-09-04T09:35:47.467Z,40.47
2018-09-04T09:38:15.715Z,40.43
2018-09-04T09:40:51.398Z,41.18
2018-09-04T09:43:30.541Z,38.60
2018-09-04T09:45:59.355Z,40.63
2018-09-04T09:48:31.922Z,38.60
2018-09-04T09:51:00.255Z,38.50
2018-09-04T09:53:29.761Z,34.30
2018-09-04T09:55:57.958Z,34.35
2018-09-04T09:58:26.532Z,36.20
2018-09-04T10:00:59.122Z,33.40
2018-09-04T10:03:32.859Z,34.25
2018-09-04T10:06:01.109Z,36.05
2018-09-04T10:08:29.406Z,31.52
2018-09-04T10:10:57.642Z,31.10
2018-09-04T10:13:25.873Z,30.60
2018-09-04T10:15:54.132Z,33.00
2018-09-04T10:18:22.861Z,34.25
2018-09-04T10:20:51.114Z,33.20
2018-09-04T10:23:19.366Z,34.55
2018-09-04T10:25:47.638Z,31.48
2018-09-04T10:28:15.889Z,32.58
2018-09-04T10:30:44.191Z,29.52
2018-09-04T10:33:12.440Z,31.30
2018-09-04T10:35:40.749Z,27.75
2018-09-04T10:38:08.989Z,24.07
2018-09-04T10:40:40.969Z,28.52
2018-09-04T10:43:09.213Z,29.23
2018-09-04T10:45:42.974Z,31.40
2018-09-04T10:48:15.353Z,28.95
2018-09-04T10:50:43.594Z,30.65
2018-09-04T10:53:11.835Z,31.15
2018-09-04T10:55:40.109Z,29.12
2018-09-04T10:58:08.361Z,26.65
2018-09-04T11:00:36.591Z,26.25
2018-09-04T11:03:04.872Z,25.65
2018-09-04T11:05:33.306Z,23.12
2018-09-04T11:08:01.558Z,24.52
2018-09-04T11:10:29.807Z,28.52
2018-09-04T11:12:58.105Z,23.20
2018-09-04T11:15:26.343Z,27.70
2018-09-04T11:17:54.591Z,22.35
2018-09-04T11:20:22.820Z,24.35
2018-09-04T11:22:51.068Z,24.65
2018-09-04T11:25:19.351Z,24.37
2018-09-04T11:27:47.636Z,24.12
2018-09-04T11:30:15.931Z,21.87
2018-09-04T11:32:44.214Z,20.65
2018-09-04T11:35:12.494Z,24.27
2018-09-04T11:37:40.875Z,20.05
2018-09-04T11:40:22.240Z,19.77
2018-09-04T11:42:50.495Z,27.32
2018-09-04T11:45:18.751Z,23.52
2018-09-04T11:47:48.134Z,21.97
2018-09-04T11:50:16.575Z,21.55
2018-09-04T11:52:44.842Z,25.88
2018-09-04T11:55:13.085Z,24.32
2018-09-04T11:57:41.850Z,21.65
2018-09-04T12:00:15.507Z,21.35
2018-09-04T12:02:44.014Z,18.57
2018-09-04T12:05:12.275Z,20.32
2018-09-04T12:07:40.528Z,21.30
2018-09-04T12:10:08.871Z,23.60
2018-09-04T12:12:37.253Z,20.68
2018-09-04T12:15:05.636Z,20.08
2018-09-04T12:17:33.897Z,19.85
2018-09-04T12:20:07.779Z,20.88
2018-09-04T12:22:36.019Z,19.50
2018-09-04T12:25:04.642Z,23.87
2018-09-04T12:27:32.941Z,20.85
2018-09-04T12:30:01.204Z,20.85
2018-09-04T12:32:29.655Z,23.20
2018-09-04T12:34:57.911Z,21.87
2018-09-04T12:37:26.168Z,24.90
2018-09-04T12:39:57.926Z,23.52
2018-09-04T12:42:28.050Z,24.43
2018-09-04T12:44:57.966Z,24.07
2018-09-04T12:47:26.204Z,22.32
2018-09-04T12:49:54.459Z,21.20
2018-09-04T12:52:22.715Z,20.90
2018-09-04T12:54:51.145Z,23.83
2018-09-04T12:57:19.406Z,20.68
2018-09-04T12:59:47.878Z,19.30
2018-09-04T13:02:16.295Z,19.67
2018-09-04T13:04:45.106Z,21.02
2018-09-04T13:07:13.379Z,18.60
2018-09-04T13:09:41.690Z,21.30
2018-09-04T13:12:10.053Z,21.05
2018-09-04T13:14:38.351Z,20.88
2018-09-04T13:17:07.054Z,19.73
2018-09-04T13:19:36.736Z,19.73
2018-09-04T13:22:05.198Z,19.10
2018-09-04T13:24:33.731Z,18.85
2018-09-04T13:27:02.065Z,20.20
2018-09-04T13:29:31.424Z,19.67
2018-09-04T13:31:59.956Z,20.10
2018-09-04T13:34:28.243Z,19.73
2018-09-04T13:36:56.517Z,19.92
2018-09-04T13:39:24.782Z,20.20
2018-09-04T13:41:53.111Z,18.80
2018-09-04T13:44:21.386Z,18.92
2018-09-04T13:46:49.690Z,19.17
2018-09-04T13:49:18.009Z,17.10
2018-09-04T13:51:46.398Z,18.52
2018-09-04T13:54:14.690Z,18.27
2018-09-04T13:56:42.972Z,17.82
2018-09-04T13:59:11.222Z,18.80
2018-09-04T14:01:39.466Z,19.32
2018-09-04T14:04:07.710Z,18.52
2018-09-04T14:06:35.974Z,16.95
2018-09-04T14:09:05.236Z,17.57
2018-09-04T14:11:33.627Z,17.37
2018-09-04T14:14:01.985Z,17.62
2018-09-04T14:16:30.164Z,17.48
2018-09-04T14:18:58.414Z,17.60
2018-09-04T14:21:26.941Z,18.20
2018-09-04T14:23:55.187Z,17.87
2018-09-04T14:26:23.424Z,18.23
2018-09-04T14:29:06.429Z,17.62
2018-09-04T14:31:19.942Z,27.22
2018-09-04T14:33:48.195Z,111.08
2018-09-04T14:36:16.467Z,37.48
2018-09-04T14:38:44.694Z,42.57
2018-09-04T14:41:12.938Z,39.83
2018-09-04T14:43:41.181Z,29.40
2018-09-04T14:46:09.466Z,21.20
2018-09-04T14:48:38.006Z,12.87
2018-09-04T14:51:06.264Z,9.10
2018-09-04T14:53:34.537Z,8.30
2018-09-04T14:56:02.792Z,12.50
2018-09-04T14:58:31.055Z,15.80
2018-09-04T15:00:59.314Z,19.77
2018-09-04T15:03:27.546Z,23.27
2018-09-04T15:05:55.801Z,22.40
2018-09-04T15:08:24.118Z,23.93
2018-09-04T15:10:52.447Z,25.87
2018-09-04T15:13:20.720Z,25.00
2018-09-04T15:15:49.016Z,26.67
2018-09-04T15:18:17.319Z,25.73
2018-09-04T15:20:45.574Z,27.27
2018-09-04T15:23:13.816Z,30.37
2018-09-04T15:25:42.092Z,28.40
2018-09-04T15:28:10.335Z,24.83
2018-09-04T15:30:38.783Z,24.10
2018-09-04T15:33:07.133Z,24.70
2018-09-04T15:35:35.494Z,26.00
2018-09-04T15:38:04.064Z,21.93
2018-09-04T15:40:32.302Z,20.67
2018-09-04T15:43:00.548Z,21.40
2018-09-04T15:45:28.870Z,21.50
2018-09-04T15:47:57.115Z,22.57
2018-09-04T15:50:25.367Z,21.77
2018-09-04T15:52:53.619Z,23.63
2018-09-04T15:55:21.849Z,21.90
2018-09-04T15:57:50.099Z,22.33
2018-09-04T16:00:18.365Z,20.00
2018-09-04T16:02:46.606Z,20.57
2018-09-04T16:05:14.903Z,20.23
2018-09-04T16:07:43.314Z,20.77
2018-09-04T16:10:11.712Z,20.33
2018-09-04T16:12:39.870Z,20.73
2018-09-04T16:15:08.126Z,21.13
2018-09-04T16:17:36.413Z,21.87
2018-09-04T16:20:04.730Z,24.53
2018-09-04T16:22:33.030Z,20.67
2018-09-04T16:25:01.275Z,21.20
2018-09-04T16:27:29.566Z,20.87
2018-09-04T16:29:57.822Z,19.93
2018-09-04T16:32:26.111Z,23.17
2018-09-04T16:34:54.446Z,22.03
2018-09-04T16:37:22.665Z,21.23
2018-09-04T16:39:50.919Z,25.13
2018-09-04T16:42:19.271Z,25.23
2018-09-04T16:44:47.539Z,24.07
2018-09-04T16:47:15.792Z,23.43
2018-09-04T16:49:44.058Z,24.83
2018-09-04T16:52:12.316Z,24.30
2018-09-04T16:54:40.618Z,26.57
2018-09-04T16:57:08.883Z,24.23
2018-09-04T16:59:37.194Z,23.97
2018-09-04T17:02:05.728Z,23.20
2018-09-04T17:04:34.061Z,24.47
2018-09-04T17:07:02.301Z,24.27
2018-09-04T17:09:30.619Z,22.23
2018-09-04T17:11:58.911Z,25.43
2018-09-04T17:14:27.194Z,22.60
2018-09-04T17:16:55.456Z,28.20
2018-09-04T17:19:23.708Z,27.00
2018-09-04T17:21:52.234Z,25.47
2018-09-04T17:24:20.548Z,24.40
2018-09-04T17:26:48.789Z,24.77
2018-09-04T17:29:17.135Z,23.73
2018-09-04T17:31:45.402Z,24.40
2018-09-04T17:34:13.819Z,23.47
2018-09-04T17:36:42.070Z,24.17
2018-09-04T17:39:10.429Z,22.90
2018-09-04T17:41:38.691Z,24.23
2018-09-04T17:44:07.252Z,25.43
2018-09-04T17:46:35.563Z,23.87
2018-09-04T17:49:05.140Z,27.50
2018-09-04T17:51:33.512Z,26.10
2018-09-04T17:54:02.031Z,27.50
2018-09-04T17:56:30.336Z,26.97
2018-09-04T17:58:58.681Z,29.57
2018-09-04T18:01:26.952Z,25.47
2018-09-04T18:03:55.228Z,26.73
2018-09-04T18:06:23.492Z,25.50
2018-09-04T18:08:51.787Z,26.57
2018-09-04T18:11:20.136Z,27.27
2018-09-04T18:13:48.497Z,26.50
2018-09-04T18:16:16.811Z,27.40
2018-09-04T18:18:45.166Z,30.53
2018-09-04T18:21:13.442Z,27.03
2018-09-04T18:23:41.863Z,30.00
2018-09-04T18:26:10.127Z,27.53
2018-09-04T18:28:38.381Z,28.93
2018-09-04T18:31:06.650Z,28.53
2018-09-04T18:33:35.031Z,30.13
2018-09-04T18:36:03.390Z,25.27
2018-09-04T18:38:31.639Z,26.53
2018-09-04T18:41:00.028Z,27.37
2018-09-04T18:43:28.273Z,26.40
2018-09-04T18:45:57.421Z,28.70
2018-09-04T18:48:26.229Z,30.63
2018-09-04T18:50:54.558Z,31.33
2018-09-04T18:53:22.803Z,29.90
2018-09-04T18:55:51.064Z,30.80
2018-09-04T18:58:19.326Z,29.30
2018-09-04T19:00:47.636Z,30.53
2018-09-04T19:03:15.903Z,32.00
2018-09-04T19:05:44.228Z,34.20
2018-09-04T19:08:12.478Z,31.17
2018-09-04T19:10:40.790Z,31.77
2018-09-04T19:13:09.064Z,29.77
2018-09-04T19:15:37.334Z,29.30
2018-09-04T19:18:05.583Z,29.47
2018-09-04T19:20:33.951Z,28.70
2018-09-04T19:23:02.251Z,30.17
2018-09-04T19:25:30.542Z,30.60
2018-09-04T19:27:58.807Z,30.57
2018-09-04T19:30:27.069Z,29.40
2018-09-04T19:32:55.342Z,30.07
2018-09-04T19:35:23.783Z,30.47
2018-09-04T19:37:52.105Z,29.80
2018-09-04T19:40:20.364Z,30.53
2018-09-04T19:42:48.645Z,31.83
2018-09-04T19:45:16.943Z,28.83
2018-09-04T19:47:45.246Z,29.90
2018-09-04T19:50:13.591Z,30.07
2018-09-04T19:52:41.921Z,32.27
2018-09-04T19:55:11.232Z,29.27
2018-09-04T19:57:39.490Z,29.70
2018-09-04T20:00:08.525Z,31.77
2018-09-04T20:02:36.828Z,31.00
2018-09-04T20:05:06.025Z,34.33
2018-09-04T20:07:34.302Z,30.93
2018-09-04T20:10:02.551Z,29.80
2018-09-04T20:12:30.811Z,28.87
2018-09-04T20:14:59.088Z,30.13
2018-09-04T20:17:27.360Z,29.80
2018-09-04T20:19:56.382Z,29.80
2018-09-04T20:22:24.665Z,29.93
2018-09-04T20:24:52.922Z,28.83
2018-09-04T20:27:21.231Z,29.47
2018-09-04T20:29:49.484Z,30.10
2018-09-04T20:32:17.748Z,29.83
2018-09-04T20:34:45.994Z,29.60
2018-09-04T20:37:45.435Z,28.03
2018-09-04T20:40:13.715Z,30.53
2018-09-04T20:42:42.003Z,34.43
2018-09-04T20:45:10.254Z,31.10
2018-09-04T20:47:38.504Z,28.87
2018-09-04T20:50:06.779Z,29.33
2018-09-04T20:52:35.030Z,28.87
2018-09-04T20:55:03.326Z,27.90
2018-09-04T20:57:38.654Z,29.77
2018-09-04T21:00:19.874Z,31.43
2018-09-04T21:02:59.844Z,30.93
2018-09-04T21:05:39.536Z,31.83
2018-09-04T21:08:24.501Z,32.03
2018-09-04T21:10:53.486Z,33.47
2018-09-04T21:13:21.753Z,33.70
2018-09-04T21:15:50.002Z,29.63
2018-09-04T21:18:18.250Z,29.50
2018-09-04T21:20:46.498Z,29.63
2018-09-04T21:23:14.761Z,29.37
2018-09-04T21:25:43.003Z,29.57
2018-09-04T21:28:11.243Z,30.57
2018-09-04T21:30:39.482Z,28.80
2018-09-04T21:33:07.770Z,30.03
2018-09-04T21:35:36.027Z,30.33
2018-09-04T21:38:04.386Z,30.23
2018-09-04T21:40:32.641Z,30.00
2018-09-04T21:43:00.882Z,29.73
2018-09-04T21:45:29.131Z,27.93
2018-09-04T21:47:57.409Z,29.97
2018-09-04T21:50:25.668Z,29.47
2018-09-04T21:52:53.911Z,29.80
2018-09-04T21:55:22.160Z,28.00
2018-09-04T21:57:50.395Z,27.37
2018-09-04T22:00:24.044Z,27.00
2018-09-04T22:02:52.291Z,26.70
2018-09-04T22:05:20.630Z,28.37
2018-09-04T22:07:49.129Z,28.97
2018-09-04T22:10:17.363Z,28.33
2018-09-04T22:12:45.603Z,27.20
2018-09-04T22:15:13.848Z,31.23
2018-09-04T22:17:42.092Z,26.20
2018-09-04T22:20:10.342Z,27.23
2018-09-04T22:22:38.598Z,28.93
2018-09-04T22:25:06.849Z,29.53
2018-09-04T22:27:35.204Z,30.67
2018-09-04T22:30:03.463Z,28.40
2018-09-04T22:32:31.724Z,28.30
2018-09-04T22:35:00.066Z,28.57
2018-09-04T22:37:28.350Z,29.47
2018-09-04T22:39:56.585Z,29.57
2018-09-04T22:42:24.843Z,28.37
2018-09-04T22:44:53.090Z,29.60
2018-09-04T22:47:21.335Z,27.83
2018-09-04T22:49:55.077Z,27.60
2018-09-04T22:52:29.489Z,29.07
2018-09-04T22:55:00.462Z,26.87
2018-09-04T22:57:28.754Z,27.63
2018-09-04T22:59:57.008Z,28.33
2018-09-04T23:02:25.259Z,27.27
2018-09-04T23:04:53.546Z,26.10
2018-09-04T23:07:21.803Z,27.40
2018-09-04T23:09:50.061Z,26.50
2018-09-04T23:12:18.328Z,29.23
2018-09-04T23:14:46.844Z,26.80
2018-09-04T23:17:15.325Z,26.60
2018-09-04T23:19:43.559Z,26.67
2018-09-04T23:22:11.796Z,27.10
2018-09-04T23:24:40.039Z,28.57
2018-09-04T23:27:08.409Z,28.50
2018-09-04T23:29:37.320Z,30.17
2018-09-04T23:32:05.583Z,29.23
2018-09-04T23:34:33.843Z,30.23
2018-09-04T23:37:02.082Z,29.30
2018-09-04T23:39:30.343Z,28.43
2018-09-04T23:41:58.589Z,30.47
2018-09-04T23:44:26.875Z,31.30
2018-09-04T23:46:55.161Z,30.93
2018-09-04T23:49:23.460Z,29.20
2018-09-04T23:51:51.751Z,28.10
2018-09-04T23:54:20.059Z,28.37
2018-09-04T23:56:48.506Z,26.83
2018-09-04T23:59:16.879Z,28.90
